sensor_id;sensor_type;location;lat;lon;timestamp;temperature;humidity
15625;DHT22;7912;51.376;6.126;2023-09-12T00:03:11;23.30;99.90
15625;DHT22;7912;51.376;6.126;2023-09-12T00:05:58;23.20;99.90
15625;DHT22;7912;51.376;6.126;2023-09-12T00:08:48;23.10;99.90
15625;DHT22;7912;51.376;6.126;2023-09-12T00:11:41;23.00;99.90
15625;DHT22;7912;51.376;6.126;2023-09-12T00:15:00;22.90;99.90
15625;DHT22;7912;51.376;6.126;2023-09-12T00:17:46;22.90;99.90
15625;DHT22;7912;51.376;6.126;2023-09-12T00:20:42;22.80;99.90
15625;DHT22;7912;51.376;6.126;2023-09-12T00:23:25;22.80;99.90
15625;DHT22;7912;51.376;6.126;2023-09-12T00:26:51;22.70;99.90
15625;DHT22;7912;51.376;6.126;2023-09-12T00:30:27;22.70;99.90
15625;DHT22;7912;51.376;6.126;2023-09-12T00:33:08;22.60;99.90
15625;DHT22;7912;51.376;6.126;2023-09-12T00:36:17;22.60;99.90
15625;DHT22;7912;51.376;6.126;2023-09-12T00:38:48;22.60;99.90
15625;DHT22;7912;51.376;6.126;2023-09-12T00:41:18;22.60;99.90
15625;DHT22;7912;51.376;6.126;2023-09-12T00:44:37;22.50;99.90
15625;DHT22;7912;51.376;6.126;2023-09-12T00:47:41;22.50;99.90
15625;DHT22;7912;51.376;6.126;2023-09-12T00:50:30;22.50;99.90
15625;DHT22;7912;51.376;6.126;2023-09-12T00:53:11;22.50;99.90
15625;DHT22;7912;51.376;6.126;2023-09-12T00:56:23;22.50;99.90
15625;DHT22;7912;51.376;6.126;2023-09-12T00:59:08;22.40;99.90
15625;DHT22;7912;51.376;6.126;2023-09-12T01:02:07;22.40;99.90
15625;DHT22;7912;51.376;6.126;2023-09-12T01:04:54;22.50;99.90
15625;DHT22;7912;51.376;6.126;2023-09-12T01:07:49;22.50;99.90
15625;DHT22;7912;51.376;6.126;2023-09-12T01:10:59;22.50;99.90
15625;DHT22;7912;51.376;6.126;2023-09-12T01:14:37;22.50;99.90
15625;DHT22;7912;51.376;6.126;2023-09-12T01:30:44;22.60;99.90
15625;DHT22;7912;51.376;6.126;2023-09-12T01:34:25;22.60;99.90
15625;DHT22;7912;51.376;6.126;2023-09-12T01:38:06;22.60;99.90
15625;DHT22;7912;51.376;6.126;2023-09-12T01:40:51;22.70;99.90
15625;DHT22;7912;51.376;6.126;2023-09-12T01:43:25;22.70;99.90
15625;DHT22;7912;51.376;6.126;2023-09-12T01:45:55;22.70;99.90
15625;DHT22;7912;51.376;6.126;2023-09-12T01:48:28;22.70;99.90
15625;DHT22;7912;51.376;6.126;2023-09-12T01:51:04;22.70;99.90
15625;DHT22;7912;51.376;6.126;2023-09-12T01:53:33;22.70;99.90
15625;DHT22;7912;51.376;6.126;2023-09-12T01:56:03;22.70;99.90
15625;DHT22;7912;51.376;6.126;2023-09-12T01:58:30;22.80;99.90
15625;DHT22;7912;51.376;6.126;2023-09-12T02:00:58;22.80;99.90
15625;DHT22;7912;51.376;6.126;2023-09-12T02:03:25;22.80;99.90
15625;DHT22;7912;51.376;6.126;2023-09-12T02:06:32;22.80;99.90
15625;DHT22;7912;51.376;6.126;2023-09-12T02:09:18;22.80;99.90
15625;DHT22;7912;51.376;6.126;2023-09-12T02:11:47;22.80;99.90
15625;DHT22;7912;51.376;6.126;2023-09-12T02:14:15;22.90;99.90
15625;DHT22;7912;51.376;6.126;2023-09-12T02:17:09;22.80;99.90
15625;DHT22;7912;51.376;6.126;2023-09-12T02:22:59;22.90;99.90
15625;DHT22;7912;51.376;6.126;2023-09-12T02:25:27;22.90;99.90
15625;DHT22;7912;51.376;6.126;2023-09-12T02:27:57;22.90;99.90
15625;DHT22;7912;51.376;6.126;2023-09-12T02:30:24;22.90;99.90
15625;DHT22;7912;51.376;6.126;2023-09-12T02:36:03;22.90;99.90
15625;DHT22;7912;51.376;6.126;2023-09-12T02:39:46;22.90;99.90
15625;DHT22;7912;51.376;6.126;2023-09-12T02:42:06;22.90;99.90
15625;DHT22;7912;51.376;6.126;2023-09-12T02:44:33;22.90;99.90
15625;DHT22;7912;51.376;6.126;2023-09-12T02:47:24;22.90;99.90
15625;DHT22;7912;51.376;6.126;2023-09-12T02:50:52;22.80;99.90
15625;DHT22;7912;51.376;6.126;2023-09-12T02:56:33;22.80;99.90
15625;DHT22;7912;51.376;6.126;2023-09-12T02:59:31;22.80;99.90
15625;DHT22;7912;51.376;6.126;2023-09-12T03:03:14;22.80;99.90
15625;DHT22;7912;51.376;6.126;2023-09-12T03:05:44;22.80;99.90
15625;DHT22;7912;51.376;6.126;2023-09-12T03:12:10;22.70;99.90
15625;DHT22;7912;51.376;6.126;2023-09-12T03:14:38;22.70;99.90
15625;DHT22;7912;51.376;6.126;2023-09-12T03:17:05;22.70;99.90
15625;DHT22;7912;51.376;6.126;2023-09-12T03:19:58;22.70;99.90
15625;DHT22;7912;51.376;6.126;2023-09-12T03:22:27;22.60;99.90
15625;DHT22;7912;51.376;6.126;2023-09-12T03:24:54;22.60;99.90
15625;DHT22;7912;51.376;6.126;2023-09-12T03:27:52;22.60;99.90
15625;DHT22;7912;51.376;6.126;2023-09-12T03:31:19;22.50;99.90
15625;DHT22;7912;51.376;6.126;2023-09-12T03:33:49;22.60;99.90
15625;DHT22;7912;51.376;6.126;2023-09-12T03:36:17;22.50;99.90
15625;DHT22;7912;51.376;6.126;2023-09-12T03:38:48;22.50;99.90
15625;DHT22;7912;51.376;6.126;2023-09-12T03:41:15;22.50;99.90
15625;DHT22;7912;51.376;6.126;2023-09-12T03:47:25;22.50;99.90
15625;DHT22;7912;51.376;6.126;2023-09-12T03:49:52;22.50;99.90
15625;DHT22;7912;51.376;6.126;2023-09-12T03:52:32;22.50;99.90
15625;DHT22;7912;51.376;6.126;2023-09-12T03:55:23;22.50;99.90
15625;DHT22;7912;51.376;6.126;2023-09-12T03:58:00;22.50;99.90
15625;DHT22;7912;51.376;6.126;2023-09-12T04:01:30;22.50;99.90
15625;DHT22;7912;51.376;6.126;2023-09-12T04:04:25;22.50;99.90
15625;DHT22;7912;51.376;6.126;2023-09-12T04:07:45;22.40;99.90
15625;DHT22;7912;51.376;6.126;2023-09-12T04:10:12;22.50;99.90
15625;DHT22;7912;51.376;6.126;2023-09-12T04:12:54;22.40;99.90
15625;DHT22;7912;51.376;6.126;2023-09-12T04:20:20;22.40;99.90
15625;DHT22;7912;51.376;6.126;2023-09-12T04:22:56;22.40;99.90
15625;DHT22;7912;51.376;6.126;2023-09-12T04:26:25;22.40;99.90
15625;DHT22;7912;51.376;6.126;2023-09-12T04:28:53;22.50;99.90
15625;DHT22;7912;51.376;6.126;2023-09-12T04:31:20;22.40;99.90
15625;DHT22;7912;51.376;6.126;2023-09-12T04:33:47;22.40;99.90
15625;DHT22;7912;51.376;6.126;2023-09-12T04:36:17;22.40;99.90
15625;DHT22;7912;51.376;6.126;2023-09-12T04:38:44;22.40;99.90
15625;DHT22;7912;51.376;6.126;2023-09-12T04:41:19;22.40;99.90
15625;DHT22;7912;51.376;6.126;2023-09-12T04:44:01;22.30;99.90
15625;DHT22;7912;51.376;6.126;2023-09-12T04:47:13;22.40;99.90
15625;DHT22;7912;51.376;6.126;2023-09-12T04:49:52;22.40;99.90
15625;DHT22;7912;51.376;6.126;2023-09-12T04:52:38;22.40;99.90
15625;DHT22;7912;51.376;6.126;2023-09-12T04:55:41;22.40;99.90
15625;DHT22;7912;51.376;6.126;2023-09-12T04:58:39;22.30;99.90
15625;DHT22;7912;51.376;6.126;2023-09-12T05:05:05;22.30;99.90
15625;DHT22;7912;51.376;6.126;2023-09-12T05:11:58;22.30;99.90
15625;DHT22;7912;51.376;6.126;2023-09-12T05:14:45;22.30;99.90
15625;DHT22;7912;51.376;6.126;2023-09-12T05:21:47;22.30;99.90
15625;DHT22;7912;51.376;6.126;2023-09-12T05:24:20;22.30;99.90
15625;DHT22;7912;51.376;6.126;2023-09-12T05:26:59;22.30;99.90
15625;DHT22;7912;51.376;6.126;2023-09-12T05:29:27;22.30;99.90
15625;DHT22;7912;51.376;6.126;2023-09-12T05:31:55;22.30;99.90
15625;DHT22;7912;51.376;6.126;2023-09-12T05:34:26;22.30;99.90
15625;DHT22;7912;51.376;6.126;2023-09-12T05:37:09;22.30;99.90
15625;DHT22;7912;51.376;6.126;2023-09-12T05:39:51;22.20;99.90
15625;DHT22;7912;51.376;6.126;2023-09-12T05:42:21;22.20;99.90
15625;DHT22;7912;51.376;6.126;2023-09-12T05:44:50;22.30;99.90
15625;DHT22;7912;51.376;6.126;2023-09-12T05:58:55;22.20;99.90
15625;DHT22;7912;51.376;6.126;2023-09-12T06:01:22;22.30;99.90
15625;DHT22;7912;51.376;6.126;2023-09-12T06:03:50;22.20;99.90
15625;DHT22;7912;51.376;6.126;2023-09-12T06:09:22;22.30;99.90
15625;DHT22;7912;51.376;6.126;2023-09-12T06:11:53;22.30;99.90
15625;DHT22;7912;51.376;6.126;2023-09-12T06:14:21;22.30;99.90
15625;DHT22;7912;51.376;6.126;2023-09-12T06:16:49;22.30;99.90
15625;DHT22;7912;51.376;6.126;2023-09-12T06:19:16;22.30;99.90
15625;DHT22;7912;51.376;6.126;2023-09-12T06:21:46;22.30;99.90
15625;DHT22;7912;51.376;6.126;2023-09-12T06:24:20;22.30;99.90
15625;DHT22;7912;51.376;6.126;2023-09-12T06:26:51;22.30;99.90
15625;DHT22;7912;51.376;6.126;2023-09-12T06:29:19;22.30;99.90
15625;DHT22;7912;51.376;6.126;2023-09-12T06:31:49;22.30;99.90
15625;DHT22;7912;51.376;6.126;2023-09-12T06:34:19;22.30;99.90
15625;DHT22;7912;51.376;6.126;2023-09-12T06:36:51;22.30;99.90
15625;DHT22;7912;51.376;6.126;2023-09-12T06:39:21;22.30;99.90
15625;DHT22;7912;51.376;6.126;2023-09-12T06:41:51;22.30;99.90
15625;DHT22;7912;51.376;6.126;2023-09-12T06:44:25;22.30;99.90
15625;DHT22;7912;51.376;6.126;2023-09-12T06:46:55;22.40;99.90
15625;DHT22;7912;51.376;6.126;2023-09-12T06:49:29;22.40;99.90
15625;DHT22;7912;51.376;6.126;2023-09-12T06:52:01;22.40;99.90
15625;DHT22;7912;51.376;6.126;2023-09-12T06:54:29;22.40;99.90
15625;DHT22;7912;51.376;6.126;2023-09-12T06:59:45;22.50;99.90
15625;DHT22;7912;51.376;6.126;2023-09-12T07:03:26;22.40;99.90
15625;DHT22;7912;51.376;6.126;2023-09-12T07:06:33;22.50;99.90
15625;DHT22;7912;51.376;6.126;2023-09-12T07:09:11;22.50;99.90
15625;DHT22;7912;51.376;6.126;2023-09-12T07:11:47;22.50;99.90
15625;DHT22;7912;51.376;6.126;2023-09-12T07:14:15;22.50;99.90
15625;DHT22;7912;51.376;6.126;2023-09-12T07:16:54;22.50;99.90
15625;DHT22;7912;51.376;6.126;2023-09-12T07:19:39;22.50;99.90
15625;DHT22;7912;51.376;6.126;2023-09-12T07:22:08;22.50;99.90
15625;DHT22;7912;51.376;6.126;2023-09-12T07:24:36;22.60;99.90
15625;DHT22;7912;51.376;6.126;2023-09-12T07:27:04;22.60;99.90
15625;DHT22;7912;51.376;6.126;2023-09-12T07:29:34;22.60;99.90
15625;DHT22;7912;51.376;6.126;2023-09-12T07:32:14;22.60;99.90
15625;DHT22;7912;51.376;6.126;2023-09-12T07:34:51;22.60;99.90
15625;DHT22;7912;51.376;6.126;2023-09-12T07:37:30;22.70;99.90
15625;DHT22;7912;51.376;6.126;2023-09-12T07:40:06;22.70;99.90
15625;DHT22;7912;51.376;6.126;2023-09-12T07:42:38;22.80;99.90
15625;DHT22;7912;51.376;6.126;2023-09-12T07:45:08;22.80;99.90
15625;DHT22;7912;51.376;6.126;2023-09-12T07:47:36;22.90;99.90
15625;DHT22;7912;51.376;6.126;2023-09-12T07:50:04;23.00;99.90
15625;DHT22;7912;51.376;6.126;2023-09-12T07:52:33;23.00;99.90
15625;DHT22;7912;51.376;6.126;2023-09-12T07:55:02;23.10;99.90
15625;DHT22;7912;51.376;6.126;2023-09-12T07:57:30;23.10;99.90
15625;DHT22;7912;51.376;6.126;2023-09-12T07:59:58;23.20;99.90
15625;DHT22;7912;51.376;6.126;2023-09-12T08:02:26;23.20;99.90
15625;DHT22;7912;51.376;6.126;2023-09-12T08:04:54;23.30;99.90
15625;DHT22;7912;51.376;6.126;2023-09-12T08:07:22;23.30;99.90
15625;DHT22;7912;51.376;6.126;2023-09-12T08:09:56;23.40;99.90
15625;DHT22;7912;51.376;6.126;2023-09-12T08:12:26;23.40;99.90
15625;DHT22;7912;51.376;6.126;2023-09-12T08:14:55;23.50;99.90
15625;DHT22;7912;51.376;6.126;2023-09-12T08:17:23;23.60;99.90
15625;DHT22;7912;51.376;6.126;2023-09-12T08:19:50;23.60;99.90
15625;DHT22;7912;51.376;6.126;2023-09-12T08:26:03;23.80;99.90
15625;DHT22;7912;51.376;6.126;2023-09-12T08:28:35;24.00;99.90
15625;DHT22;7912;51.376;6.126;2023-09-12T08:31:02;24.00;99.90
15625;DHT22;7912;51.376;6.126;2023-09-12T08:33:30;24.00;99.90
15625;DHT22;7912;51.376;6.126;2023-09-12T08:35:59;24.10;99.90
15625;DHT22;7912;51.376;6.126;2023-09-12T08:38:27;24.20;99.90
15625;DHT22;7912;51.376;6.126;2023-09-12T08:40:54;24.30;99.90
15625;DHT22;7912;51.376;6.126;2023-09-12T08:43:25;24.30;99.90
15625;DHT22;7912;51.376;6.126;2023-09-12T08:45:56;24.40;99.90
15625;DHT22;7912;51.376;6.126;2023-09-12T08:48:25;24.50;99.90
15625;DHT22;7912;51.376;6.126;2023-09-12T08:50:59;24.60;99.90
15625;DHT22;7912;51.376;6.126;2023-09-12T08:54:00;24.70;99.90
15625;DHT22;7912;51.376;6.126;2023-09-12T08:56:34;24.90;99.90
15625;DHT22;7912;51.376;6.126;2023-09-12T08:59:07;25.00;99.90
15625;DHT22;7912;51.376;6.126;2023-09-12T09:01:36;25.10;99.90
15625;DHT22;7912;51.376;6.126;2023-09-12T09:04:05;25.20;99.90
15625;DHT22;7912;51.376;6.126;2023-09-12T09:06:36;25.30;99.90
15625;DHT22;7912;51.376;6.126;2023-09-12T09:09:15;25.40;99.90
15625;DHT22;7912;51.376;6.126;2023-09-12T09:11:43;25.60;99.90
15625;DHT22;7912;51.376;6.126;2023-09-12T09:14:13;25.70;99.90
15625;DHT22;7912;51.376;6.126;2023-09-12T09:16:42;25.90;99.90
15625;DHT22;7912;51.376;6.126;2023-09-12T09:19:10;26.00;99.90
15625;DHT22;7912;51.376;6.126;2023-09-12T09:21:50;26.20;99.90
15625;DHT22;7912;51.376;6.126;2023-09-12T09:24:20;26.40;99.90
15625;DHT22;7912;51.376;6.126;2023-09-12T09:26:51;26.50;99.90
15625;DHT22;7912;51.376;6.126;2023-09-12T09:29:30;26.60;99.90
15625;DHT22;7912;51.376;6.126;2023-09-12T09:32:03;26.70;99.90
15625;DHT22;7912;51.376;6.126;2023-09-12T09:34:43;26.70;99.90
15625;DHT22;7912;51.376;6.126;2023-09-12T09:37:11;26.90;99.90
15625;DHT22;7912;51.376;6.126;2023-09-12T09:39:47;27.10;99.90
15625;DHT22;7912;51.376;6.126;2023-09-12T09:42:19;27.40;99.90
15625;DHT22;7912;51.376;6.126;2023-09-12T09:44:48;27.60;99.90
15625;DHT22;7912;51.376;6.126;2023-09-12T09:47:18;28.00;99.90
15625;DHT22;7912;51.376;6.126;2023-09-12T09:49:46;28.30;99.90
15625;DHT22;7912;51.376;6.126;2023-09-12T09:52:28;28.70;99.90
15625;DHT22;7912;51.376;6.126;2023-09-12T09:54:58;29.10;99.90
15625;DHT22;7912;51.376;6.126;2023-09-12T09:57:29;29.40;99.90
15625;DHT22;7912;51.376;6.126;2023-09-12T10:00:03;29.50;99.90
15625;DHT22;7912;51.376;6.126;2023-09-12T10:02:36;29.60;99.90
15625;DHT22;7912;51.376;6.126;2023-09-12T10:05:25;29.70;99.90
15625;DHT22;7912;51.376;6.126;2023-09-12T10:08:06;29.90;99.90
15625;DHT22;7912;51.376;6.126;2023-09-12T10:10:38;30.00;99.90
15625;DHT22;7912;51.376;6.126;2023-09-12T10:13:07;30.20;99.90
15625;DHT22;7912;51.376;6.126;2023-09-12T10:19:56;30.50;99.90
15625;DHT22;7912;51.376;6.126;2023-09-12T10:22:36;30.90;99.90
15625;DHT22;7912;51.376;6.126;2023-09-12T10:25:08;31.20;99.90
15625;DHT22;7912;51.376;6.126;2023-09-12T10:27:37;31.40;99.90
15625;DHT22;7912;51.376;6.126;2023-09-12T10:30:06;31.60;99.90
15625;DHT22;7912;51.376;6.126;2023-09-12T10:32:36;31.70;99.90
15625;DHT22;7912;51.376;6.126;2023-09-12T10:35:06;32.00;99.90
15625;DHT22;7912;51.376;6.126;2023-09-12T10:37:41;32.10;99.90
15625;DHT22;7912;51.376;6.126;2023-09-12T10:40:13;32.30;98.70
15625;DHT22;7912;51.376;6.126;2023-09-12T10:42:43;32.40;98.00
15625;DHT22;7912;51.376;6.126;2023-09-12T10:45:12;32.50;97.70
15625;DHT22;7912;51.376;6.126;2023-09-12T10:47:40;32.40;97.10
15625;DHT22;7912;51.376;6.126;2023-09-12T10:50:09;32.40;96.30
15625;DHT22;7912;51.376;6.126;2023-09-12T10:52:38;32.30;97.20
15625;DHT22;7912;51.376;6.126;2023-09-12T10:55:08;32.30;96.00
15625;DHT22;7912;51.376;6.126;2023-09-12T10:58:07;32.20;96.10
15625;DHT22;7912;51.376;6.126;2023-09-12T11:00:37;32.00;95.40
15625;DHT22;7912;51.376;6.126;2023-09-12T11:05:56;31.80;95.90
15625;DHT22;7912;51.376;6.126;2023-09-12T11:08:24;31.70;95.70
15625;DHT22;7912;51.376;6.126;2023-09-12T11:11:17;31.60;95.20
15625;DHT22;7912;51.376;6.126;2023-09-12T11:14:05;31.50;95.40
15625;DHT22;7912;51.376;6.126;2023-09-12T11:16:33;31.40;95.50
15625;DHT22;7912;51.376;6.126;2023-09-12T11:19:20;31.40;96.30
15625;DHT22;7912;51.376;6.126;2023-09-12T11:21:53;31.50;96.80
15625;DHT22;7912;51.376;6.126;2023-09-12T11:24:23;31.60;96.50
15625;DHT22;7912;51.376;6.126;2023-09-12T11:26:59;31.70;96.40
15625;DHT22;7912;51.376;6.126;2023-09-12T11:29:37;31.80;95.40
15625;DHT22;7912;51.376;6.126;2023-09-12T11:32:07;31.90;95.00
15625;DHT22;7912;51.376;6.126;2023-09-12T11:34:41;31.90;94.80
15625;DHT22;7912;51.376;6.126;2023-09-12T11:37:10;31.80;94.40
15625;DHT22;7912;51.376;6.126;2023-09-12T11:39:49;31.70;94.60
15625;DHT22;7912;51.376;6.126;2023-09-12T11:42:18;31.50;94.80
15625;DHT22;7912;51.376;6.126;2023-09-12T11:44:55;31.40;96.30
15625;DHT22;7912;51.376;6.126;2023-09-12T11:47:23;31.30;96.70
15625;DHT22;7912;51.376;6.126;2023-09-12T11:49:54;31.40;96.20
15625;DHT22;7912;51.376;6.126;2023-09-12T11:52:22;31.50;97.30
15625;DHT22;7912;51.376;6.126;2023-09-12T11:54:51;31.70;97.20
15625;DHT22;7912;51.376;6.126;2023-09-12T11:57:20;31.80;96.90
15625;DHT22;7912;51.376;6.126;2023-09-12T11:59:49;32.00;95.50
15625;DHT22;7912;51.376;6.126;2023-09-12T12:02:19;32.10;94.00
15625;DHT22;7912;51.376;6.126;2023-09-12T12:04:46;32.10;93.40
15625;DHT22;7912;51.376;6.126;2023-09-12T12:07:14;32.10;93.00
15625;DHT22;7912;51.376;6.126;2023-09-12T12:09:42;32.00;93.50
15625;DHT22;7912;51.376;6.126;2023-09-12T12:12:12;32.00;93.10
15625;DHT22;7912;51.376;6.126;2023-09-12T12:14:41;32.00;93.30
15625;DHT22;7912;51.376;6.126;2023-09-12T12:17:11;32.00;93.30
15625;DHT22;7912;51.376;6.126;2023-09-12T12:19:44;32.00;93.40
15625;DHT22;7912;51.376;6.126;2023-09-12T12:22:12;32.10;94.30
15625;DHT22;7912;51.376;6.126;2023-09-12T12:24:45;32.20;94.10
15625;DHT22;7912;51.376;6.126;2023-09-12T12:27:15;32.20;94.10
15625;DHT22;7912;51.376;6.126;2023-09-12T12:29:43;32.30;94.20
15625;DHT22;7912;51.376;6.126;2023-09-12T12:32:14;32.40;93.70
15625;DHT22;7912;51.376;6.126;2023-09-12T12:34:48;32.50;93.00
15625;DHT22;7912;51.376;6.126;2023-09-12T12:37:39;32.60;93.00
15625;DHT22;7912;51.376;6.126;2023-09-12T12:40:12;32.70;92.40
15625;DHT22;7912;51.376;6.126;2023-09-12T12:42:41;32.80;92.10
15625;DHT22;7912;51.376;6.126;2023-09-12T12:45:22;32.90;92.30
15625;DHT22;7912;51.376;6.126;2023-09-12T12:47:58;33.00;91.80
15625;DHT22;7912;51.376;6.126;2023-09-12T12:50:27;33.10;91.00
15625;DHT22;7912;51.376;6.126;2023-09-12T12:52:57;33.20;91.10
15625;DHT22;7912;51.376;6.126;2023-09-12T12:55:26;33.20;90.50
15625;DHT22;7912;51.376;6.126;2023-09-12T12:57:53;33.10;90.20
15625;DHT22;7912;51.376;6.126;2023-09-12T13:00:21;33.00;90.40
15625;DHT22;7912;51.376;6.126;2023-09-12T13:02:50;32.90;90.40
15625;DHT22;7912;51.376;6.126;2023-09-12T13:05:36;32.70;90.30
15625;DHT22;7912;51.376;6.126;2023-09-12T13:08:24;32.40;90.10
15625;DHT22;7912;51.376;6.126;2023-09-12T13:10:54;32.20;91.20
15625;DHT22;7912;51.376;6.126;2023-09-12T13:13:43;32.10;91.50
15625;DHT22;7912;51.376;6.126;2023-09-12T13:16:13;32.00;91.60
15625;DHT22;7912;51.376;6.126;2023-09-12T13:18:42;31.90;91.80
15625;DHT22;7912;51.376;6.126;2023-09-12T13:21:32;31.80;91.70
15625;DHT22;7912;51.376;6.126;2023-09-12T13:24:00;31.80;91.70
15625;DHT22;7912;51.376;6.126;2023-09-12T13:26:28;31.80;91.80
15625;DHT22;7912;51.376;6.126;2023-09-12T13:32:02;31.70;91.30
15625;DHT22;7912;51.376;6.126;2023-09-12T13:34:30;31.70;92.00
15625;DHT22;7912;51.376;6.126;2023-09-12T13:36:58;31.70;92.30
15625;DHT22;7912;51.376;6.126;2023-09-12T13:39:38;31.70;92.50
15625;DHT22;7912;51.376;6.126;2023-09-12T13:42:06;31.70;92.50
15625;DHT22;7912;51.376;6.126;2023-09-12T13:44:35;31.80;92.30
15625;DHT22;7912;51.376;6.126;2023-09-12T13:47:05;31.90;92.40
15625;DHT22;7912;51.376;6.126;2023-09-12T13:49:45;32.00;91.80
15625;DHT22;7912;51.376;6.126;2023-09-12T13:52:13;32.00;91.60
15625;DHT22;7912;51.376;6.126;2023-09-12T13:54:42;32.00;91.50
15625;DHT22;7912;51.376;6.126;2023-09-12T13:57:10;32.00;91.30
15625;DHT22;7912;51.376;6.126;2023-09-12T13:59:41;31.90;91.00
15625;DHT22;7912;51.376;6.126;2023-09-12T14:02:13;31.80;91.10
15625;DHT22;7912;51.376;6.126;2023-09-12T14:04:51;31.70;91.10
15625;DHT22;7912;51.376;6.126;2023-09-12T14:07:37;31.60;91.40
15625;DHT22;7912;51.376;6.126;2023-09-12T14:10:17;31.50;91.40
15625;DHT22;7912;51.376;6.126;2023-09-12T14:12:57;31.40;91.90
15625;DHT22;7912;51.376;6.126;2023-09-12T14:15:43;31.40;92.60
15625;DHT22;7912;51.376;6.126;2023-09-12T14:18:10;31.40;92.20
15625;DHT22;7912;51.376;6.126;2023-09-12T14:20:39;31.50;92.40
15625;DHT22;7912;51.376;6.126;2023-09-12T14:23:07;31.50;92.90
15625;DHT22;7912;51.376;6.126;2023-09-12T14:25:34;31.60;92.60
15625;DHT22;7912;51.376;6.126;2023-09-12T14:28:02;31.70;92.30
15625;DHT22;7912;51.376;6.126;2023-09-12T14:30:34;31.90;92.20
15625;DHT22;7912;51.376;6.126;2023-09-12T14:33:03;32.10;91.20
15625;DHT22;7912;51.376;6.126;2023-09-12T14:35:31;32.30;90.90
15625;DHT22;7912;51.376;6.126;2023-09-12T14:37:58;32.40;90.60
15625;DHT22;7912;51.376;6.126;2023-09-12T14:40:26;32.40;90.00
15625;DHT22;7912;51.376;6.126;2023-09-12T14:42:57;32.50;90.40
15625;DHT22;7912;51.376;6.126;2023-09-12T14:45:44;32.40;90.00
15625;DHT22;7912;51.376;6.126;2023-09-12T14:48:17;32.40;89.50
15625;DHT22;7912;51.376;6.126;2023-09-12T14:51:24;32.30;90.40
15625;DHT22;7912;51.376;6.126;2023-09-12T14:54:08;32.30;90.20
15625;DHT22;7912;51.376;6.126;2023-09-12T14:57:04;32.30;90.30
15625;DHT22;7912;51.376;6.126;2023-09-12T14:59:32;32.40;90.00
15625;DHT22;7912;51.376;6.126;2023-09-12T15:02:04;32.40;88.80
15625;DHT22;7912;51.376;6.126;2023-09-12T15:04:41;32.50;87.60
15625;DHT22;7912;51.376;6.126;2023-09-12T15:07:13;32.40;87.20
15625;DHT22;7912;51.376;6.126;2023-09-12T15:09:48;32.30;88.30
15625;DHT22;7912;51.376;6.126;2023-09-12T15:12:25;32.30;87.70
15625;DHT22;7912;51.376;6.126;2023-09-12T15:15:11;32.10;87.60
15625;DHT22;7912;51.376;6.126;2023-09-12T15:20:35;31.70;88.40
15625;DHT22;7912;51.376;6.126;2023-09-12T15:23:02;31.40;89.40
15625;DHT22;7912;51.376;6.126;2023-09-12T15:25:34;31.20;90.20
15625;DHT22;7912;51.376;6.126;2023-09-12T15:28:03;31.10;90.70
15625;DHT22;7912;51.376;6.126;2023-09-12T15:30:37;30.90;90.70
15625;DHT22;7912;51.376;6.126;2023-09-12T15:33:38;30.80;91.00
15625;DHT22;7912;51.376;6.126;2023-09-12T15:36:08;30.70;90.90
15625;DHT22;7912;51.376;6.126;2023-09-12T15:38:41;30.70;91.00
15625;DHT22;7912;51.376;6.126;2023-09-12T15:41:08;30.70;91.10
15625;DHT22;7912;51.376;6.126;2023-09-12T15:43:39;30.60;91.20
15625;DHT22;7912;51.376;6.126;2023-09-12T15:46:11;30.60;91.30
15625;DHT22;7912;51.376;6.126;2023-09-12T15:48:59;30.50;91.40
15625;DHT22;7912;51.376;6.126;2023-09-12T15:51:30;30.40;91.50
15625;DHT22;7912;51.376;6.126;2023-09-12T15:57:12;30.30;92.40
15625;DHT22;7912;51.376;6.126;2023-09-12T15:59:41;30.10;92.70
15625;DHT22;7912;51.376;6.126;2023-09-12T16:02:09;30.00;92.90
15625;DHT22;7912;51.376;6.126;2023-09-12T16:04:41;30.00;93.20
15625;DHT22;7912;51.376;6.126;2023-09-12T16:07:09;29.90;93.20
15625;DHT22;7912;51.376;6.126;2023-09-12T16:09:38;29.80;93.40
15625;DHT22;7912;51.376;6.126;2023-09-12T16:12:07;29.70;93.70
15625;DHT22;7912;51.376;6.126;2023-09-12T16:14:39;29.60;93.80
15625;DHT22;7912;51.376;6.126;2023-09-12T16:17:16;29.60;94.00
15625;DHT22;7912;51.376;6.126;2023-09-12T16:19:55;29.50;94.20
15625;DHT22;7912;51.376;6.126;2023-09-12T16:22:35;29.40;94.30
15625;DHT22;7912;51.376;6.126;2023-09-12T16:25:30;29.30;94.50
15625;DHT22;7912;51.376;6.126;2023-09-12T16:28:30;29.20;94.70
15625;DHT22;7912;51.376;6.126;2023-09-12T16:32:04;29.10;94.80
15625;DHT22;7912;51.376;6.126;2023-09-12T16:35:01;29.00;95.00
15625;DHT22;7912;51.376;6.126;2023-09-12T16:38:04;28.90;95.10
15625;DHT22;7912;51.376;6.126;2023-09-12T16:40:55;28.90;95.20
15625;DHT22;7912;51.376;6.126;2023-09-12T16:44:07;28.80;95.40
15625;DHT22;7912;51.376;6.126;2023-09-12T16:46:53;28.80;95.30
15625;DHT22;7912;51.376;6.126;2023-09-12T16:50:07;28.70;95.50
15625;DHT22;7912;51.376;6.126;2023-09-12T16:56:23;28.60;95.50
15625;DHT22;7912;51.376;6.126;2023-09-12T16:59:16;28.60;95.90
15625;DHT22;7912;51.376;6.126;2023-09-12T17:02:13;28.50;95.90
15625;DHT22;7912;51.376;6.126;2023-09-12T17:05:01;28.50;96.00
15625;DHT22;7912;51.376;6.126;2023-09-12T17:07:46;28.30;96.30
15625;DHT22;7912;51.376;6.126;2023-09-12T17:10:30;28.30;96.30
15625;DHT22;7912;51.376;6.126;2023-09-12T17:13:12;28.20;96.40
15625;DHT22;7912;51.376;6.126;2023-09-12T17:15:46;28.20;96.60
15625;DHT22;7912;51.376;6.126;2023-09-12T17:18:25;28.10;96.90
15625;DHT22;7912;51.376;6.126;2023-09-12T17:21:18;28.00;97.20
15625;DHT22;7912;51.376;6.126;2023-09-12T17:24:09;28.00;97.70
15625;DHT22;7912;51.376;6.126;2023-09-12T17:26:50;27.90;97.70
15625;DHT22;7912;51.376;6.126;2023-09-12T17:29:27;27.90;97.90
15625;DHT22;7912;51.376;6.126;2023-09-12T17:31:56;27.80;98.40
15625;DHT22;7912;51.376;6.126;2023-09-12T17:34:45;27.80;98.40
15625;DHT22;7912;51.376;6.126;2023-09-12T17:37:25;27.80;98.90
15625;DHT22;7912;51.376;6.126;2023-09-12T17:39:54;27.70;98.80
15625;DHT22;7912;51.376;6.126;2023-09-12T17:42:26;27.70;99.00
15625;DHT22;7912;51.376;6.126;2023-09-12T17:44:54;27.70;99.40
15625;DHT22;7912;51.376;6.126;2023-09-12T17:47:22;27.60;99.50
15625;DHT22;7912;51.376;6.126;2023-09-12T17:49:51;27.60;99.90
15625;DHT22;7912;51.376;6.126;2023-09-12T17:52:19;27.60;99.90
15625;DHT22;7912;51.376;6.126;2023-09-12T17:54:47;27.50;99.90
15625;DHT22;7912;51.376;6.126;2023-09-12T17:57:15;27.50;99.90
15625;DHT22;7912;51.376;6.126;2023-09-12T17:59:43;27.40;99.90
15625;DHT22;7912;51.376;6.126;2023-09-12T18:02:15;27.40;99.90
15625;DHT22;7912;51.376;6.126;2023-09-12T18:04:46;27.30;99.90
15625;DHT22;7912;51.376;6.126;2023-09-12T18:07:28;27.30;99.90
15625;DHT22;7912;51.376;6.126;2023-09-12T18:09:56;27.30;99.90
15625;DHT22;7912;51.376;6.126;2023-09-12T18:12:24;27.20;99.90
15625;DHT22;7912;51.376;6.126;2023-09-12T18:14:58;27.20;99.90
15625;DHT22;7912;51.376;6.126;2023-09-12T18:17:27;27.10;99.90
15625;DHT22;7912;51.376;6.126;2023-09-12T18:19:55;27.00;99.90
15625;DHT22;7912;51.376;6.126;2023-09-12T18:22:23;27.00;99.90